createdAt,value
2018-05-11T00:00:19.459Z,90.00
2018-05-11T00:02:46.953Z,90.00
2018-05-11T00:05:14.428Z,90.00
2018-05-11T00:07:41.917Z,90.00
2018-05-11T00:10:10.154Z,90.00
2018-05-11T00:12:37.651Z,89.90
2018-05-11T00:15:05.122Z,89.90
2018-05-11T00:17:32.613Z,89.90
2018-05-11T00:20:00.087Z,89.80
2018-05-11T00:22:27.574Z,89.70
2018-05-11T00:24:55.884Z,89.60
2018-05-11T00:27:23.380Z,89.50
2018-05-11T00:29:50.853Z,89.60
2018-05-11T00:32:18.344Z,89.70
2018-05-11T00:34:46.589Z,89.90
2018-05-11T00:37:14.850Z,89.90
2018-05-11T00:39:42.322Z,89.80
2018-05-11T00:42:09.814Z,90.00
2018-05-11T00:44:38.050Z,90.10
2018-05-11T00:47:05.541Z,90.10
2018-05-11T00:49:33.782Z,90.20
2018-05-11T00:52:01.277Z,90.20
2018-05-11T00:54:29.517Z,90.60
2018-05-11T00:56:57.009Z,90.50
2018-05-11T00:59:25.261Z,90.80
2018-05-11T01:01:52.748Z,90.70
2018-05-11T01:04:20.993Z,91.00
2018-05-11T01:06:48.498Z,91.00
2018-05-11T01:09:15.988Z,91.20
2018-05-11T01:11:43.462Z,91.20
2018-05-11T01:14:10.957Z,91.40
2018-05-11T01:16:39.206Z,91.50
2018-05-11T01:19:06.693Z,91.50
2018-05-11T01:21:34.934Z,91.50
2018-05-11T01:24:02.425Z,91.50
2018-05-11T01:26:30.665Z,91.50
2018-05-11T01:28:58.152Z,91.50
2018-05-11T01:31:25.637Z,91.50
2018-05-11T01:33:53.914Z,91.40
2018-05-11T01:36:21.391Z,91.30
2018-05-11T01:38:48.877Z,91.30
2018-05-11T01:41:16.362Z,91.20
2018-05-11T01:43:43.853Z,91.10
2018-05-11T01:46:12.095Z,91.10
2018-05-11T01:48:39.580Z,91.10
2018-05-11T01:51:07.825Z,91.20
2018-05-11T01:53:35.319Z,91.20
2018-05-11T01:56:03.558Z,91.20
2018-05-11T01:58:31.052Z,91.20
2018-05-11T02:00:59.299Z,91.20
2018-05-11T02:03:26.811Z,91.10
2018-05-11T02:05:54.286Z,91.40
2018-05-11T02:08:21.806Z,91.00
2018-05-11T02:10:50.049Z,91.10
2018-05-11T02:13:17.549Z,91.10
2018-05-11T02:15:45.033Z,91.10
2018-05-11T02:18:12.529Z,91.00
2018-05-11T02:20:40.000Z,91.00
2018-05-11T02:23:07.475Z,91.00
2018-05-11T02:25:35.732Z,90.90
2018-05-11T02:28:03.209Z,90.80
2018-05-11T02:30:31.473Z,90.90
2018-05-11T02:32:58.948Z,90.80
2018-05-11T02:35:27.211Z,90.60
2018-05-11T02:37:54.685Z,90.60
2018-05-11T02:40:22.948Z,90.50
2018-05-11T02:42:51.196Z,90.70
2018-05-11T02:45:18.694Z,90.70
2018-05-11T02:47:46.952Z,90.60
2018-05-11T02:50:14.455Z,90.60
2018-05-11T02:52:41.933Z,90.60
2018-05-11T02:55:09.433Z,90.40
2018-05-11T02:57:36.912Z,90.30
2018-05-11T03:00:05.169Z,90.10
2018-05-11T03:02:32.649Z,90.10
2018-05-11T03:05:00.906Z,90.00
2018-05-11T03:07:28.378Z,90.00
2018-05-11T03:09:56.637Z,90.20
2018-05-11T03:12:24.118Z,90.20
2018-05-11T03:14:52.384Z,90.30
2018-05-11T03:17:19.853Z,90.20
2018-05-11T03:19:48.121Z,91.00
2018-05-11T03:22:16.373Z,90.90
2018-05-11T03:24:43.861Z,90.90
2018-05-11T03:27:12.109Z,91.40
2018-05-11T03:29:39.601Z,91.40
2018-05-11T03:32:07.845Z,91.30
2018-05-11T03:34:35.325Z,91.20
2018-05-11T03:37:04.336Z,91.10
2018-05-11T03:39:32.578Z,91.00
2018-05-11T03:42:00.076Z,91.00
2018-05-11T03:44:28.321Z,91.00
2018-05-11T03:46:55.813Z,90.90
2018-05-11T03:49:24.061Z,90.90
2018-05-11T03:51:51.556Z,90.90
2018-05-11T03:54:19.037Z,91.00
2018-05-11T03:56:46.533Z,91.20
2018-05-11T03:59:14.010Z,91.50
2018-05-11T04:01:53.413Z,91.80
2018-05-11T04:04:32.908Z,91.80
2018-05-11T04:07:12.994Z,92.20
2018-05-11T04:09:40.470Z,92.20
2018-05-11T04:12:07.961Z,92.00
2018-05-11T04:14:37.104Z,91.90
2018-05-11T04:17:04.598Z,91.90
2018-05-11T04:19:32.074Z,91.90
2018-05-11T04:21:59.610Z,92.00
2018-05-11T04:24:27.087Z,92.10
2018-05-11T04:26:54.578Z,92.10
2018-05-11T04:29:22.892Z,92.10
2018-05-11T04:31:50.389Z,92.20
2018-05-11T04:34:17.870Z,92.10
2018-05-11T04:36:46.132Z,92.10
2018-05-11T04:39:14.387Z,92.10
2018-05-11T04:41:42.333Z,92.10
2018-05-11T04:44:09.823Z,92.00
2018-05-11T04:46:37.320Z,92.10
2018-05-11T04:49:04.793Z,92.40
2018-05-11T04:51:32.291Z,92.50
2018-05-11T04:53:59.769Z,92.50
2018-05-11T04:56:28.033Z,92.50
2018-05-11T04:58:55.502Z,92.50
2018-05-11T05:01:22.978Z,92.40
2018-05-11T05:03:51.337Z,92.60
2018-05-11T05:06:18.809Z,92.60
2018-05-11T05:08:47.066Z,92.60
2018-05-11T05:11:14.545Z,92.60
2018-05-11T05:13:42.806Z,92.60
2018-05-11T05:16:10.277Z,92.60
2018-05-11T05:18:38.548Z,92.50
2018-05-11T05:21:06.025Z,92.50
2018-05-11T05:23:34.280Z,92.40
2018-05-11T05:26:01.757Z,92.30
2018-05-11T05:28:30.023Z,92.40
2018-05-11T05:30:58.269Z,92.30
2018-05-11T05:33:25.761Z,92.30
2018-05-11T05:35:54.409Z,92.20
2018-05-11T05:38:21.914Z,92.50
2018-05-11T05:40:50.165Z,91.90
2018-05-11T05:43:17.657Z,91.80
2018-05-11T05:45:46.006Z,91.60
2018-05-11T05:48:13.433Z,91.60
2018-05-11T05:50:40.908Z,91.20
2018-05-11T05:53:08.417Z,90.50
2018-05-11T05:55:35.901Z,90.30
2018-05-11T05:58:03.394Z,89.60
2018-05-11T06:00:30.878Z,89.10
2018-05-11T06:02:59.136Z,88.70
2018-05-11T06:05:26.662Z,88.70
2018-05-11T06:07:54.925Z,84.60
2018-05-11T06:10:22.406Z,84.50
2018-05-11T06:12:49.909Z,83.90
2018-05-11T06:15:18.157Z,82.60
2018-05-11T06:17:45.703Z,82.50
2018-05-11T06:20:13.165Z,81.90
2018-05-11T06:22:40.655Z,80.40
2018-05-11T06:25:08.787Z,80.10
2018-05-11T06:27:36.277Z,80.10
2018-05-11T06:30:03.769Z,79.20
2018-05-11T06:32:32.033Z,77.30
2018-05-11T06:35:00.301Z,77.30
2018-05-11T06:37:27.774Z,77.10
2018-05-11T06:39:56.040Z,76.50
2018-05-11T06:42:23.518Z,76.40
2018-05-11T06:44:51.796Z,77.10
2018-05-11T06:47:20.047Z,75.50
2018-05-11T06:49:47.541Z,75.40
2018-05-11T06:52:15.025Z,76.00
2018-05-11T06:54:42.637Z,74.90
2018-05-11T06:57:10.896Z,74.60
2018-05-11T06:59:38.397Z,74.50
2018-05-11T07:02:06.652Z,74.00
2018-05-11T07:04:34.918Z,73.70
2018-05-11T07:07:02.435Z,73.50
2018-05-11T07:09:29.912Z,73.70
2018-05-11T07:11:57.394Z,73.20
2018-05-11T07:14:24.899Z,72.70
2018-05-11T07:16:52.389Z,73.30
2018-05-11T07:19:19.907Z,74.10
2018-05-11T07:21:48.165Z,72.10
2018-05-11T07:24:16.418Z,72.40
2018-05-11T07:26:43.917Z,72.30
2018-05-11T07:29:12.161Z,70.50
2018-05-11T07:31:39.656Z,70.40
2018-05-11T07:34:07.906Z,69.40
2018-05-11T07:36:36.181Z,68.90
2018-05-11T07:39:03.723Z,68.80
2018-05-11T07:41:31.173Z,68.20
2018-05-11T07:43:58.741Z,66.50
2018-05-11T07:46:26.940Z,68.30
2018-05-11T07:48:55.197Z,70.00
2018-05-11T07:51:22.698Z,69.90
2018-05-11T07:53:50.948Z,65.70
2018-05-11T07:56:18.449Z,65.50
2018-05-11T07:58:45.942Z,65.20
2018-05-11T08:01:13.449Z,66.60
2018-05-11T08:03:41.699Z,66.10
2018-05-11T08:06:09.205Z,66.00
2018-05-11T08:08:36.693Z,65.80
2018-05-11T08:11:04.193Z,65.90
2018-05-11T08:13:32.445Z,65.10
2018-05-11T08:15:59.946Z,65.10
2018-05-11T08:18:27.451Z,65.30
2018-05-11T08:20:54.953Z,66.40
2018-05-11T08:23:23.204Z,66.20
2018-05-11T08:25:50.707Z,66.20
2018-05-11T08:28:18.193Z,65.50
2018-05-11T08:30:45.693Z,65.80
2018-05-11T08:33:13.185Z,65.60
2018-05-11T08:35:40.696Z,65.00
2018-05-11T08:38:08.176Z,64.50
2018-05-11T08:40:36.438Z,64.80
2018-05-11T08:43:03.946Z,64.80
2018-05-11T08:45:31.431Z,63.50
2018-05-11T08:47:58.935Z,63.60
2018-05-11T08:50:27.194Z,65.40
2018-05-11T08:52:54.688Z,65.40
2018-05-11T08:55:22.929Z,64.80
2018-05-11T08:57:50.420Z,64.60
2018-05-11T09:00:17.909Z,64.70
2018-05-11T09:02:45.405Z,65.80
2018-05-11T09:05:12.888Z,62.60
2018-05-11T09:07:41.157Z,61.10
2018-05-11T09:10:09.410Z,62.20
2018-05-11T09:12:36.910Z,62.20
2018-05-11T09:15:05.169Z,64.30
2018-05-11T09:17:32.675Z,64.30
2018-05-11T09:20:00.161Z,63.00
2018-05-11T09:22:27.691Z,62.80
2018-05-11T09:24:55.180Z,62.00
2018-05-11T09:27:22.677Z,59.90
2018-05-11T09:29:50.929Z,59.70
2018-05-11T09:32:18.425Z,59.70
2018-05-11T09:34:46.678Z,61.30
2018-05-11T09:37:14.186Z,61.30
2018-05-11T09:39:41.738Z,61.80
2018-05-11T09:42:09.161Z,61.30
2018-05-11T09:44:37.425Z,61.40
2018-05-11T09:47:04.953Z,61.40
2018-05-11T09:49:32.504Z,62.10
2018-05-11T09:52:00.709Z,59.80
2018-05-11T09:54:28.211Z,59.60
2018-05-11T09:56:56.460Z,60.00
2018-05-11T09:59:23.952Z,59.90
2018-05-11T10:01:51.473Z,60.00
2018-05-11T10:04:18.966Z,59.40
2018-05-11T10:06:47.216Z,61.30
2018-05-11T10:09:14.713Z,61.30
2018-05-11T10:11:42.193Z,59.40
2018-05-11T10:14:09.690Z,58.90
2018-05-11T10:16:37.168Z,58.00
2018-05-11T10:19:05.442Z,55.40
2018-05-11T10:21:33.688Z,54.10
2018-05-11T10:24:01.201Z,54.10
2018-05-11T10:26:28.717Z,54.20
2018-05-11T10:28:56.280Z,54.90
2018-05-11T10:31:23.717Z,54.90
2018-05-11T10:33:51.217Z,54.60
2018-05-11T10:36:19.464Z,54.50
2018-05-11T10:38:46.961Z,54.40
2018-05-11T10:41:15.210Z,55.60
2018-05-11T10:43:42.713Z,55.50
2018-05-11T10:46:10.194Z,55.20
2018-05-11T10:48:37.749Z,55.90
2018-05-11T10:51:05.203Z,56.30
2018-05-11T10:53:32.680Z,55.00
2018-05-11T10:56:00.173Z,53.60
2018-05-11T10:58:27.661Z,53.50
2018-05-11T11:00:55.933Z,54.30
2018-05-11T11:03:24.185Z,54.60
2018-05-11T11:05:51.680Z,54.60
2018-05-11T11:08:19.164Z,53.30
2018-05-11T11:10:46.674Z,53.60
2018-05-11T11:13:14.921Z,52.30
2018-05-11T11:15:42.428Z,52.20
2018-05-11T11:18:09.923Z,51.80
2018-05-11T11:20:37.429Z,52.30
2018-05-11T11:23:05.677Z,52.60
2018-05-11T11:25:33.173Z,52.60
2018-05-11T11:28:01.426Z,52.80
2018-05-11T11:30:28.930Z,52.70
2018-05-11T11:32:56.425Z,52.20
2018-05-11T11:35:23.928Z,50.70
2018-05-11T11:37:52.177Z,51.90
2018-05-11T11:40:19.678Z,51.90
2018-05-11T11:42:47.934Z,52.20
2018-05-11T11:45:16.201Z,52.60
2018-05-11T11:47:43.686Z,52.50
2018-05-11T11:50:11.953Z,53.00
2018-05-11T11:52:40.204Z,52.10
2018-05-11T11:55:07.707Z,52.10
2018-05-11T11:57:35.189Z,52.50
2018-05-11T12:00:02.685Z,52.60
2018-05-11T12:02:30.175Z,53.30
2018-05-11T12:04:58.432Z,52.30
2018-05-11T12:07:26.703Z,52.50
2018-05-11T12:09:54.186Z,52.40
2018-05-11T12:12:22.457Z,53.20
2018-05-11T12:14:50.704Z,52.20
2018-05-11T12:17:18.200Z,52.20
2018-05-11T12:19:45.677Z,52.00
2018-05-11T12:22:13.176Z,52.30
2018-05-11T12:24:40.656Z,51.70
2018-05-11T12:27:08.162Z,51.30
2018-05-11T12:29:35.647Z,51.10
2018-05-11T12:32:03.153Z,52.30
2018-05-11T12:34:31.398Z,52.70
2018-05-11T12:36:58.897Z,52.70
2018-05-11T12:39:27.140Z,53.30
2018-05-11T12:41:54.645Z,53.20
2018-05-11T12:44:22.130Z,52.20
2018-05-11T12:46:49.625Z,52.80
2018-05-11T12:49:17.107Z,53.80
2018-05-11T12:51:45.373Z,52.90
2018-05-11T12:54:13.617Z,52.20
2018-05-11T12:56:41.114Z,52.20
2018-05-11T12:59:09.422Z,53.20
2018-05-11T13:01:36.920Z,53.10
2018-05-11T13:04:04.406Z,51.80
2018-05-11T13:06:32.681Z,52.00
2018-05-11T13:09:00.934Z,52.50
2018-05-11T13:11:28.416Z,52.40
2018-05-11T13:13:56.682Z,51.20
2018-05-11T13:16:24.165Z,51.10
2018-05-11T13:18:52.432Z,51.50
2018-05-11T13:21:20.680Z,52.20
2018-05-11T13:23:48.177Z,52.20
2018-05-11T13:26:16.481Z,52.80
2018-05-11T13:28:43.983Z,52.70
2018-05-11T13:31:11.477Z,52.60
2018-05-11T13:33:38.976Z,52.30
2018-05-11T13:36:06.467Z,52.20
2018-05-11T13:38:33.961Z,52.20
2018-05-11T13:41:02.205Z,53.30
2018-05-11T13:43:31.212Z,54.20
2018-05-11T13:45:59.484Z,52.20
2018-05-11T13:48:27.071Z,52.10
2018-05-11T13:50:54.482Z,52.70
2018-05-11T13:53:21.986Z,51.30
2018-05-11T13:55:49.469Z,50.80
2018-05-11T13:58:16.961Z,52.10
2018-05-11T14:00:44.444Z,50.60
2018-05-11T14:03:12.716Z,51.90
2018-05-11T14:05:41.704Z,52.30
2018-05-11T14:08:09.205Z,52.30
2018-05-11T14:10:36.685Z,51.80
2018-05-11T14:13:04.185Z,51.00
2018-05-11T14:15:31.664Z,51.90
2018-05-11T14:17:59.934Z,51.20
2018-05-11T14:20:28.197Z,51.90
2018-05-11T14:22:55.800Z,51.80
2018-05-11T14:25:23.289Z,51.90
2018-05-11T14:27:50.786Z,51.10
2018-05-11T14:30:19.053Z,52.10
2018-05-11T14:32:46.538Z,52.10
2018-05-11T14:35:14.043Z,52.20
2018-05-11T14:37:41.529Z,51.60
2018-05-11T14:40:09.023Z,51.50
2018-05-11T14:42:36.504Z,51.60
2018-05-11T14:45:04.011Z,51.30
2018-05-11T14:47:32.266Z,52.10
2018-05-11T14:49:59.769Z,51.30
2018-05-11T14:52:28.031Z,52.40
2018-05-11T14:54:56.299Z,52.60
2018-05-11T14:57:23.785Z,52.50
2018-05-11T14:59:52.045Z,53.00
2018-05-11T15:02:20.298Z,52.00
2018-05-11T15:04:48.638Z,52.60
2018-05-11T15:07:16.117Z,52.60
2018-05-11T15:09:43.613Z,53.70
2018-05-11T15:12:11.861Z,52.60
2018-05-11T15:14:39.357Z,52.50
2018-05-11T15:17:07.605Z,51.50
2018-05-11T15:19:35.105Z,51.50
2018-05-11T15:22:03.356Z,52.30
2018-05-11T15:24:30.867Z,52.30
2018-05-11T15:26:58.357Z,52.10
2018-05-11T15:29:25.863Z,52.30
2018-05-11T15:31:53.347Z,51.60
2018-05-11T15:34:20.857Z,51.60
2018-05-11T15:36:49.162Z,51.00
2018-05-11T15:39:17.426Z,50.90
2018-05-11T15:41:45.684Z,51.60
2018-05-11T15:44:13.197Z,51.60
2018-05-11T15:46:40.684Z,51.70
2018-05-11T15:49:08.170Z,51.20
2018-05-11T15:51:36.481Z,52.20
2018-05-11T15:54:03.969Z,52.20
2018-05-11T15:56:31.466Z,53.40
2018-05-11T15:58:59.780Z,52.10
2018-05-11T16:01:27.230Z,52.10
2018-05-11T16:03:54.715Z,52.10
2018-05-11T16:06:22.218Z,52.00
2018-05-11T16:08:50.475Z,51.00
2018-05-11T16:11:18.090Z,50.30
2018-05-11T16:13:45.589Z,51.40
2018-05-11T16:16:13.085Z,51.20
2018-05-11T16:18:41.332Z,51.80
2018-05-11T16:21:08.825Z,51.80
2018-05-11T16:23:37.065Z,51.80
2018-05-11T16:26:04.561Z,51.70
2018-05-11T16:28:32.810Z,52.00
2018-05-11T16:31:00.309Z,51.90
2018-05-11T16:33:28.549Z,52.00
2018-05-11T16:35:56.058Z,52.00
2018-05-11T16:38:23.628Z,52.10
2018-05-11T16:40:51.133Z,51.20
2018-05-11T16:43:18.617Z,51.10
2018-05-11T16:45:46.886Z,50.80
2018-05-11T16:48:15.138Z,51.30
2018-05-11T16:50:42.641Z,51.30
2018-05-11T16:53:10.121Z,51.50
2018-05-11T16:55:37.597Z,52.40
2018-05-11T16:58:05.289Z,52.60
2018-05-11T17:00:32.773Z,51.70
2018-05-11T17:03:01.035Z,51.00
2018-05-11T17:05:29.294Z,50.80
2018-05-11T17:07:56.794Z,50.80
2018-05-11T17:10:25.041Z,49.70
2018-05-11T17:12:53.317Z,49.30
2018-05-11T17:15:20.822Z,49.20
2018-05-11T17:17:48.328Z,49.40
2018-05-11T17:20:15.817Z,49.30
2018-05-11T17:22:43.437Z,49.30
2018-05-11T17:25:10.824Z,49.10
2018-05-11T17:27:39.101Z,48.80
2018-05-11T17:30:07.354Z,49.20
2018-05-11T17:32:34.973Z,49.10
2018-05-11T17:35:02.463Z,49.00
2018-05-11T17:37:29.973Z,49.50
2018-05-11T17:39:58.239Z,49.00
2018-05-11T17:42:26.522Z,49.20
2018-05-11T17:44:54.021Z,49.10
2018-05-11T17:47:21.539Z,48.50
2018-05-11T17:49:49.801Z,49.00
2018-05-11T17:52:18.081Z,49.70
2018-05-11T17:54:45.574Z,49.60
2018-05-11T17:57:13.073Z,50.30
2018-05-11T17:59:40.674Z,50.60
2018-05-11T18:02:08.925Z,51.40
2018-05-11T18:04:36.631Z,51.30
2018-05-11T18:07:04.168Z,52.00
2018-05-11T18:09:32.433Z,52.40
2018-05-11T18:11:59.910Z,52.30
2018-05-11T18:14:28.186Z,52.80
2018-05-11T18:16:56.443Z,53.40
2018-05-11T18:19:23.942Z,53.40
2018-05-11T18:21:51.426Z,54.00
2018-05-11T18:24:18.928Z,54.50
2018-05-11T18:26:46.422Z,54.60
2018-05-11T18:29:13.961Z,55.40
2018-05-11T18:31:42.221Z,55.70
2018-05-11T18:34:09.725Z,55.70
2018-05-11T18:36:37.213Z,56.10
2018-05-11T18:39:05.636Z,56.50
2018-05-11T18:41:33.899Z,56.90
2018-05-11T18:44:01.402Z,56.90
2018-05-11T18:46:28.893Z,56.90
2018-05-11T18:48:56.403Z,57.40
2018-05-11T18:51:24.649Z,57.70
2018-05-11T18:53:52.454Z,58.20
2018-05-11T18:56:19.646Z,58.20
2018-05-11T18:58:47.145Z,58.40
2018-05-11T19:01:15.416Z,58.80
2018-05-11T19:03:43.693Z,59.00
2018-05-11T19:06:11.955Z,59.20
2018-05-11T19:08:39.466Z,59.10
2018-05-11T19:11:06.953Z,59.10
2018-05-11T19:13:34.434Z,59.50
2018-05-11T19:16:01.925Z,59.50
2018-05-11T19:18:30.172Z,59.90
2018-05-11T19:20:57.668Z,59.90
2018-05-11T19:23:25.920Z,60.20
2018-05-11T19:25:54.928Z,60.50
2018-05-11T19:28:23.173Z,60.80
2018-05-11T19:31:01.948Z,60.80
2018-05-11T19:33:29.437Z,60.80
2018-05-11T19:35:56.943Z,61.20
2018-05-11T19:38:25.185Z,61.60
2018-05-11T19:40:52.686Z,61.40
2018-05-11T19:43:20.181Z,61.40
2018-05-11T19:45:47.681Z,61.60
2018-05-11T19:48:15.169Z,61.90
2018-05-11T19:50:43.429Z,62.50
2018-05-11T19:53:11.681Z,62.70
2018-05-11T19:55:39.198Z,62.50
2018-05-11T19:58:06.685Z,63.10
2018-05-11T20:00:34.189Z,64.00
2018-05-11T20:03:02.439Z,63.70
2018-05-11T20:05:29.954Z,63.60
2018-05-11T20:07:57.453Z,64.10
2018-05-11T20:10:25.722Z,65.00
2018-05-11T20:12:53.205Z,65.00
2018-05-11T20:15:20.697Z,65.30
2018-05-11T20:17:48.180Z,65.50
2018-05-11T20:20:15.686Z,65.60
2018-05-11T20:22:43.165Z,66.00
2018-05-11T20:25:11.430Z,66.20
2018-05-11T20:27:39.683Z,66.30
2018-05-11T20:30:07.185Z,66.20
2018-05-11T20:32:34.756Z,66.50
2018-05-11T20:35:02.217Z,66.60
2018-05-11T20:37:29.703Z,66.90
2018-05-11T20:39:57.181Z,67.40
2018-05-11T20:42:24.687Z,67.80
2018-05-11T20:44:52.260Z,68.10
2018-05-11T20:47:19.799Z,68.60
2018-05-11T20:49:47.289Z,68.70
2018-05-11T20:52:14.801Z,69.50
2018-05-11T20:54:42.281Z,69.70
2018-05-11T20:57:10.547Z,70.20
2018-05-11T20:59:38.798Z,72.00
2018-05-11T21:02:06.296Z,71.90
2018-05-11T21:04:33.782Z,71.60
2018-05-11T21:07:01.273Z,71.90
2018-05-11T21:09:28.760Z,72.10
2018-05-11T21:11:57.030Z,72.10
2018-05-11T21:14:25.346Z,72.60
2018-05-11T21:16:52.794Z,72.60
2018-05-11T21:19:20.291Z,72.80
2018-05-11T21:21:47.803Z,73.00
2018-05-11T21:24:16.046Z,73.60
2018-05-11T21:26:43.549Z,73.40
2018-05-11T21:29:11.038Z,73.90
2018-05-11T21:31:38.537Z,74.50
2018-05-11T21:34:06.859Z,75.10
2018-05-11T21:36:34.356Z,74.90
2018-05-11T21:39:01.839Z,75.30
2018-05-11T21:41:30.111Z,75.70
2018-05-11T21:43:57.589Z,75.60
2018-05-11T21:46:25.854Z,75.50
2018-05-11T21:48:54.107Z,75.40
2018-05-11T21:51:21.621Z,75.40
2018-05-11T21:53:49.105Z,75.40
2018-05-11T21:56:16.582Z,75.80
2018-05-11T21:58:44.078Z,75.90
2018-05-11T22:01:12.321Z,75.90
2018-05-11T22:03:39.826Z,75.90
2018-05-11T22:06:07.313Z,76.10
2018-05-11T22:08:34.813Z,76.10
2018-05-11T22:11:03.797Z,76.60
2018-05-11T22:13:31.345Z,76.50
2018-05-11T22:15:58.801Z,76.70
2018-05-11T22:18:26.302Z,76.80
2018-05-11T22:20:54.549Z,77.50
2018-05-11T22:23:22.043Z,77.40
2018-05-11T22:25:49.532Z,77.60
2018-05-11T22:28:17.026Z,78.00
2018-05-11T22:30:44.513Z,78.30
2018-05-11T22:33:12.777Z,79.00
2018-05-11T22:35:41.021Z,79.30
2018-05-11T22:38:08.521Z,79.10
2018-05-11T22:40:36.769Z,80.20
2018-05-11T22:43:04.273Z,80.00
2018-05-11T22:45:32.524Z,80.40
2018-05-11T22:48:00.798Z,80.20
2018-05-11T22:50:28.274Z,80.20
2018-05-11T22:52:56.534Z,80.20
2018-05-11T22:55:24.009Z,80.10
2018-05-11T22:57:52.273Z,80.60
2018-05-11T23:00:25.085Z,81.00
2018-05-11T23:02:53.349Z,81.60
2018-05-11T23:05:21.610Z,81.90
2018-05-11T23:07:49.110Z,81.80
2018-05-11T23:10:16.593Z,81.70
2018-05-11T23:12:44.078Z,82.30
2018-05-11T23:15:11.584Z,82.20
2018-05-11T23:17:39.070Z,82.10
2018-05-11T23:20:06.568Z,82.20
2018-05-11T23:22:36.025Z,82.40
2018-05-11T23:25:03.521Z,82.80
2018-05-11T23:27:31.005Z,83.30
2018-05-11T23:29:59.270Z,83.70
2018-05-11T23:32:27.521Z,84.50
2018-05-11T23:34:55.792Z,84.20
2018-05-11T23:37:23.274Z,84.10
2018-05-11T23:39:50.764Z,84.10
2018-05-11T23:42:18.248Z,84.20
2018-05-11T23:44:45.753Z,84.30
2018-05-11T23:47:13.233Z,84.30
2018-05-11T23:49:41.525Z,84.50
2018-05-11T23:52:08.990Z,84.50
2018-05-11T23:54:36.488Z,84.80
2018-05-11T23:57:03.974Z,85.10
2018-05-11T23:59:31.477Z,85.40
